BAW273 EGLL-TBPB
Flight info
| Callsign | BAW273 |
|---|---|
| Flight time | N/A |
| Altitude | 26000 |
| Route | N0556F260 CPT Q63 CONKO SL2 C/5124N00350W/N0726F260F450 SL2 C/LESLU/M200F450F600 DCT 4849N01443W 4649N02000W 4500N02353W 4136N03000W 3422N04000W 2700N04748W 2438N05000W 1800N05539W/N0653F390 DCT BGI |
| Aircraft | CONC/H-SDFHIRY/C |
Departure
| Time | 2026-05-06 09:18 |
|---|---|
| Airport | London Heathrow Airport (EGLL) |
Arrival
| Time | N/A |
|---|---|
| Airport | Grantley Adams International Airport (TBPB) |
| Time | Latitude | Longitude | Altitude | Speed | Heading |
|---|---|---|---|---|---|
| 2026-05-06 08:32 | 51.46058 | -0.44501 | 95 ft | 0 kts | 293° |
| 2026-05-06 09:01 | 51.46057 | -0.44497 | 94 ft | 3 kts | 293° |
| 2026-05-06 09:02 | 51.46045 | -0.44458 | 94 ft | 4 kts | 297° |
| 2026-05-06 09:02 | 51.46031 | -0.44423 | 94 ft | 4 kts | 314° |
| 2026-05-06 09:02 | 51.46012 | -0.44408 | 94 ft | 4 kts | 8° |
| 2026-05-06 09:02 | 51.46007 | -0.44411 | 94 ft | 0 kts | 23° |
| 2026-05-06 09:06 | 51.46021 | -0.44402 | 94 ft | 4 kts | 23° |
| 2026-05-06 09:06 | 51.46055 | -0.44378 | 94 ft | 7 kts | 23° |
| 2026-05-06 09:06 | 51.46109 | -0.44340 | 94 ft | 10 kts | 24° |
| 2026-05-06 09:07 | 51.46184 | -0.44288 | 94 ft | 13 kts | 23° |
| 2026-05-06 09:07 | 51.46274 | -0.44226 | 94 ft | 14 kts | 22° |
| 2026-05-06 09:07 | 51.46326 | -0.44328 | 94 ft | 16 kts | 272° |
| 2026-05-06 09:07 | 51.46327 | -0.44526 | 94 ft | 19 kts | 270° |
| 2026-05-06 09:08 | 51.46326 | -0.44758 | 94 ft | 22 kts | 270° |
| 2026-05-06 09:08 | 51.46326 | -0.44885 | 94 ft | 6 kts | 269° |
| 2026-05-06 09:08 | 51.46325 | -0.44975 | 94 ft | 10 kts | 270° |
| 2026-05-06 09:08 | 51.46325 | -0.45101 | 94 ft | 13 kts | 270° |
| 2026-05-06 09:09 | 51.46325 | -0.45263 | 94 ft | 16 kts | 270° |
| 2026-05-06 09:09 | 51.46324 | -0.45463 | 94 ft | 19 kts | 269° |
| 2026-05-06 09:09 | 51.46327 | -0.45696 | 94 ft | 22 kts | 270° |
| 2026-05-06 09:09 | 51.46326 | -0.45913 | 94 ft | 14 kts | 270° |
| 2026-05-06 09:10 | 51.46326 | -0.46081 | 94 ft | 17 kts | 270° |
| 2026-05-06 09:10 | 51.46325 | -0.46286 | 94 ft | 20 kts | 270° |
| 2026-05-06 09:10 | 51.46325 | -0.46442 | 94 ft | 1 kts | 270° |
| 2026-05-06 09:10 | 51.46325 | -0.46466 | 94 ft | 4 kts | 270° |
| 2026-05-06 09:11 | 51.46324 | -0.46526 | 94 ft | 7 kts | 270° |
| 2026-05-06 09:11 | 51.46324 | -0.46621 | 94 ft | 10 kts | 269° |
| 2026-05-06 09:11 | 51.46323 | -0.46753 | 94 ft | 13 kts | 269° |
| 2026-05-06 09:11 | 51.46323 | -0.46920 | 94 ft | 17 kts | 269° |
| 2026-05-06 09:12 | 51.46322 | -0.47078 | 94 ft | 14 kts | 270° |
| 2026-05-06 09:12 | 51.46322 | -0.47239 | 94 ft | 16 kts | 270° |
| 2026-05-06 09:12 | 51.46338 | -0.47431 | 94 ft | 19 kts | 277° |
| 2026-05-06 09:12 | 51.46335 | -0.47625 | 94 ft | 15 kts | 250° |
| 2026-05-06 09:13 | 51.46281 | -0.47792 | 94 ft | 18 kts | 240° |
| 2026-05-06 09:13 | 51.46251 | -0.48005 | 94 ft | 22 kts | 270° |
| 2026-05-06 09:13 | 51.46251 | -0.48251 | 94 ft | 18 kts | 270° |
| 2026-05-06 09:13 | 51.46250 | -0.48466 | 94 ft | 16 kts | 270° |
| 2026-05-06 09:14 | 51.46258 | -0.48611 | 94 ft | 14 kts | 288° |
| 2026-05-06 09:14 | 51.46287 | -0.48686 | 94 ft | 0 kts | 314° |
| 2026-05-06 09:15 | 51.46290 | -0.48690 | 94 ft | 2 kts | 317° |
| 2026-05-06 09:15 | 51.46308 | -0.48712 | 94 ft | 5 kts | 326° |
| 2026-05-06 09:15 | 51.46350 | -0.48743 | 94 ft | 8 kts | 343° |
| 2026-05-06 09:15 | 51.46417 | -0.48752 | 95 ft | 7 kts | 358° |
| 2026-05-06 09:16 | 51.46468 | -0.48709 | 94 ft | 11 kts | 64° |
| 2026-05-06 09:16 | 51.46478 | -0.48628 | 94 ft | 0 kts | 86° |
| 2026-05-06 09:17 | 51.46480 | -0.48540 | 94 ft | 35 kts | 88° |
| 2026-05-06 09:17 | 51.46482 | -0.47684 | 94 ft | 117 kts | 90° |
| 2026-05-06 09:18 | 51.46488 | -0.45970 | 94 ft | 189 kts | 90° |
| 2026-05-06 09:18 | 51.46486 | -0.43598 | 301 ft | 227 kts | 88° |
| 2026-05-06 09:18 | 51.46389 | -0.40897 | 822 ft | 255 kts | 102° |
| 2026-05-06 09:18 | 51.45817 | -0.38204 | 1380 ft | 255 kts | 116° |
| 2026-05-06 09:19 | 51.44837 | -0.35857 | 1693 ft | 254 kts | 132° |
| 2026-05-06 09:19 | 51.43499 | -0.34025 | 1963 ft | 254 kts | 148° |
| 2026-05-06 09:19 | 51.41882 | -0.32910 | 2235 ft | 256 kts | 172° |
| 2026-05-06 09:19 | 51.40101 | -0.33043 | 2474 ft | 262 kts | 199° |
| 2026-05-06 09:20 | 51.38522 | -0.34486 | 2724 ft | 266 kts | 227° |
| 2026-05-06 09:20 | 51.37498 | -0.36942 | 2971 ft | 269 kts | 255° |
| 2026-05-06 09:20 | 51.37193 | -0.39893 | 3210 ft | 272 kts | 272° |
| 2026-05-06 09:20 | 51.37246 | -0.42995 | 3380 ft | 285 kts | 275° |
| 2026-05-06 09:21 | 51.37365 | -0.46234 | 3637 ft | 299 kts | 275° |
| 2026-05-06 09:21 | 51.37509 | -0.49632 | 4010 ft | 313 kts | 275° |
| 2026-05-06 09:21 | 51.37666 | -0.53146 | 4716 ft | 317 kts | 276° |
| 2026-05-06 09:21 | 51.37827 | -0.56732 | 5695 ft | 319 kts | 276° |
| 2026-05-06 09:22 | 51.37987 | -0.60291 | 6746 ft | 322 kts | 276° |
| 2026-05-06 09:22 | 51.38148 | -0.63886 | 7857 ft | 326 kts | 276° |
| 2026-05-06 09:22 | 51.38317 | -0.67557 | 8879 ft | 341 kts | 276° |
| 2026-05-06 09:22 | 51.38507 | -0.71523 | 9359 ft | 372 kts | 276° |
| 2026-05-06 09:23 | 51.38718 | -0.75773 | 9854 ft | 391 kts | 276° |
| 2026-05-06 09:23 | 51.38942 | -0.80181 | 10164 ft | 397 kts | 276° |
| 2026-05-06 09:23 | 51.39173 | -0.84695 | 10351 ft | 418 kts | 276° |
| 2026-05-06 09:23 | 51.39420 | -0.89434 | 10559 ft | 436 kts | 276° |
| 2026-05-06 09:24 | 51.39678 | -0.94343 | 10954 ft | 447 kts | 276° |
| 2026-05-06 09:24 | 51.39943 | -0.99367 | 11579 ft | 456 kts | 276° |
| 2026-05-06 09:24 | 51.40273 | -1.04451 | 12331 ft | 461 kts | 283° |
| 2026-05-06 09:24 | 51.41377 | -1.09252 | 13095 ft | 464 kts | 302° |
| 2026-05-06 09:25 | 51.43421 | -1.13285 | 13868 ft | 469 kts | 316° |
| 2026-05-06 09:25 | 51.45805 | -1.16873 | 14603 ft | 472 kts | 317° |
| 2026-05-06 09:25 | 51.48194 | -1.20497 | 14950 ft | 473 kts | 313° |
| 2026-05-06 09:25 | 51.50155 | -1.24702 | 14995 ft | 472 kts | 296° |
| 2026-05-06 09:26 | 51.51412 | -1.29574 | 15017 ft | 472 kts | 290° |
| 2026-05-06 09:26 | 51.52473 | -1.34560 | 15016 ft | 472 kts | 288° |
| 2026-05-06 09:26 | 51.53480 | -1.39585 | 15014 ft | 472 kts | 288° |
| 2026-05-06 09:26 | 51.54467 | -1.44618 | 15013 ft | 472 kts | 288° |
| 2026-05-06 09:27 | 51.55449 | -1.49654 | 15013 ft | 472 kts | 288° |
| 2026-05-06 09:27 | 51.56433 | -1.54694 | 15014 ft | 472 kts | 288° |
| 2026-05-06 09:27 | 51.57434 | -1.59790 | 15015 ft | 472 kts | 288° |
| 2026-05-06 09:27 | 51.58354 | -1.64852 | 15016 ft | 472 kts | 283° |
| 2026-05-06 09:28 | 51.58949 | -1.70040 | 15022 ft | 472 kts | 279° |
| 2026-05-06 09:28 | 51.59378 | -1.75285 | 15159 ft | 478 kts | 277° |
| 2026-05-06 09:28 | 51.59749 | -1.80645 | 15762 ft | 485 kts | 276° |
| 2026-05-06 09:28 | 51.60102 | -1.86079 | 16494 ft | 491 kts | 276° |
| 2026-05-06 09:29 | 51.60450 | -1.91572 | 17337 ft | 496 kts | 276° |
| 2026-05-06 09:29 | 51.60801 | -1.97113 | 18228 ft | 501 kts | 276° |
| 2026-05-06 09:29 | 51.61137 | -2.02719 | 19157 ft | 507 kts | 273° |
| 2026-05-06 09:29 | 51.61057 | -2.08420 | 20136 ft | 513 kts | 264° |
| 2026-05-06 09:30 | 51.60579 | -2.14153 | 21183 ft | 520 kts | 261° |
| 2026-05-06 09:30 | 51.59953 | -2.19916 | 22261 ft | 527 kts | 259° |
| 2026-05-06 09:30 | 51.59267 | -2.25728 | 23259 ft | 533 kts | 259° |
| 2026-05-06 09:30 | 51.58548 | -2.31624 | 24162 ft | 540 kts | 258° |
| 2026-05-06 09:31 | 51.57809 | -2.37585 | 24980 ft | 547 kts | 258° |
| 2026-05-06 09:31 | 51.57057 | -2.43606 | 25687 ft | 552 kts | 259° |
| 2026-05-06 09:31 | 51.56307 | -2.49637 | 25985 ft | 549 kts | 259° |
| 2026-05-06 09:31 | 51.55571 | -2.55658 | 26026 ft | 549 kts | 259° |
| 2026-05-06 09:32 | 51.55088 | -2.59730 | 26027 ft | 549 kts | 259° |
| 2026-05-06 09:32 | 51.54387 | -2.65755 | 26026 ft | 548 kts | 259° |
| 2026-05-06 09:32 | 51.53692 | -2.71785 | 26026 ft | 548 kts | 259° |
| 2026-05-06 09:32 | 51.53001 | -2.77802 | 26025 ft | 548 kts | 259° |
| 2026-05-06 09:33 | 51.52299 | -2.83830 | 26025 ft | 549 kts | 259° |
| 2026-05-06 09:33 | 51.51585 | -2.89847 | 26024 ft | 549 kts | 259° |
| 2026-05-06 09:33 | 51.50857 | -2.95866 | 26024 ft | 549 kts | 259° |
| 2026-05-06 09:33 | 51.50122 | -3.01896 | 26024 ft | 549 kts | 259° |
| 2026-05-06 09:34 | 51.49389 | -3.07912 | 26024 ft | 549 kts | 259° |
| 2026-05-06 09:34 | 51.48660 | -3.13936 | 26024 ft | 550 kts | 259° |
| 2026-05-06 09:34 | 51.47931 | -3.19952 | 26023 ft | 550 kts | 259° |
| 2026-05-06 09:34 | 51.47197 | -3.25962 | 26023 ft | 550 kts | 259° |
| 2026-05-06 09:35 | 51.46456 | -3.31981 | 26023 ft | 550 kts | 259° |
| 2026-05-06 09:35 | 51.45713 | -3.37994 | 26023 ft | 550 kts | 259° |
| 2026-05-06 09:35 | 51.44965 | -3.44003 | 26022 ft | 550 kts | 259° |
| 2026-05-06 09:35 | 51.44214 | -3.50007 | 26022 ft | 550 kts | 259° |
| 2026-05-06 09:36 | 51.43463 | -3.56009 | 26022 ft | 550 kts | 259° |
| 2026-05-06 09:36 | 51.42712 | -3.62012 | 26023 ft | 550 kts | 259° |
| 2026-05-06 09:36 | 51.41957 | -3.68021 | 26023 ft | 550 kts | 259° |
| 2026-05-06 09:36 | 51.41199 | -3.74019 | 26023 ft | 550 kts | 259° |
| 2026-05-06 09:37 | 51.40463 | -3.80031 | 26023 ft | 550 kts | 260° |
| 2026-05-06 09:37 | 51.39816 | -3.86053 | 26288 ft | 551 kts | 261° |
| 2026-05-06 09:37 | 51.39238 | -3.92152 | 27022 ft | 557 kts | 262° |
| 2026-05-06 09:37 | 51.38721 | -3.98339 | 27949 ft | 563 kts | 263° |
| 2026-05-06 09:38 | 51.38236 | -4.04586 | 28674 ft | 568 kts | 263° |
| 2026-05-06 09:38 | 51.37765 | -4.10882 | 29190 ft | 572 kts | 263° |
| 2026-05-06 09:38 | 51.37297 | -4.17216 | 29587 ft | 575 kts | 263° |
| 2026-05-06 09:38 | 51.36820 | -4.23587 | 29957 ft | 578 kts | 263° |
| 2026-05-06 09:39 | 51.36321 | -4.29993 | 30317 ft | 581 kts | 263° |
| 2026-05-06 09:39 | 51.35800 | -4.36416 | 30695 ft | 583 kts | 263° |
| 2026-05-06 09:39 | 51.35261 | -4.42862 | 31088 ft | 586 kts | 262° |
| 2026-05-06 09:39 | 51.34708 | -4.49340 | 31479 ft | 589 kts | 262° |
| 2026-05-06 09:40 | 51.34141 | -4.55942 | 31895 ft | 592 kts | 262° |
| 2026-05-06 09:40 | 51.33583 | -4.62485 | 32287 ft | 598 kts | 262° |
| 2026-05-06 09:40 | 51.32455 | -4.75853 | 33148 ft | 617 kts | 262° |
| 2026-05-06 09:41 | 51.31871 | -4.82725 | 33723 ft | 629 kts | 262° |
| 2026-05-06 09:41 | 51.31267 | -4.89735 | 34288 ft | 644 kts | 262° |
| 2026-05-06 09:41 | 51.30642 | -4.96900 | 34803 ft | 659 kts | 262° |
| 2026-05-06 09:41 | 51.29992 | -5.04240 | 35279 ft | 674 kts | 262° |
| 2026-05-06 09:42 | 51.29325 | -5.11735 | 35746 ft | 689 kts | 262° |
| 2026-05-06 09:42 | 51.28642 | -5.19394 | 36167 ft | 704 kts | 262° |
| 2026-05-06 09:42 | 51.27939 | -5.27211 | 36598 ft | 718 kts | 262° |
| 2026-05-06 09:42 | 51.27219 | -5.35177 | 37012 ft | 732 kts | 262° |
| 2026-05-06 09:43 | 51.26481 | -5.43294 | 37423 ft | 746 kts | 262° |
| 2026-05-06 09:43 | 51.25723 | -5.51563 | 37818 ft | 761 kts | 262° |
| 2026-05-06 09:43 | 51.24941 | -5.59997 | 38249 ft | 776 kts | 262° |
| 2026-05-06 09:43 | 51.24138 | -5.68594 | 38671 ft | 792 kts | 262° |
| 2026-05-06 09:44 | 51.23311 | -5.77377 | 39098 ft | 807 kts | 262° |
| 2026-05-06 09:44 | 51.22460 | -5.86315 | 39526 ft | 824 kts | 262° |
| 2026-05-06 09:44 | 51.21586 | -5.95443 | 39952 ft | 840 kts | 262° |
| 2026-05-06 09:44 | 51.20687 | -6.04747 | 40359 ft | 857 kts | 261° |
| 2026-05-06 09:45 | 51.19764 | -6.14218 | 40726 ft | 873 kts | 261° |
| 2026-05-06 09:45 | 51.18816 | -6.23873 | 41102 ft | 889 kts | 261° |
| 2026-05-06 09:45 | 51.17831 | -6.33813 | 41468 ft | 905 kts | 261° |
| 2026-05-06 09:45 | 51.16831 | -6.43810 | 41801 ft | 921 kts | 261° |
| 2026-05-06 09:46 | 51.15809 | -6.53950 | 42136 ft | 935 kts | 261° |
| 2026-05-06 09:46 | 51.14758 | -6.64261 | 42452 ft | 950 kts | 261° |
| 2026-05-06 09:46 | 51.13682 | -6.74731 | 42756 ft | 964 kts | 261° |
| 2026-05-06 09:46 | 51.12584 | -6.85317 | 43062 ft | 976 kts | 261° |
| 2026-05-06 09:47 | 51.11463 | -6.96016 | 43320 ft | 984 kts | 261° |
| 2026-05-06 09:47 | 51.10326 | -7.06776 | 43532 ft | 989 kts | 261° |
| 2026-05-06 09:47 | 51.09170 | -7.17596 | 43713 ft | 994 kts | 261° |
| 2026-05-06 09:47 | 51.08001 | -7.28450 | 43873 ft | 998 kts | 261° |
| 2026-05-06 09:48 | 51.06804 | -7.39326 | 44040 ft | 1001 kts | 259° |
| 2026-05-06 09:48 | 51.05288 | -7.50162 | 44148 ft | 1005 kts | 256° |
| 2026-05-06 09:48 | 51.01466 | -7.71557 | 44393 ft | 1010 kts | 253° |
| 2026-05-06 09:49 | 50.99346 | -7.82205 | 44533 ft | 1013 kts | 252° |
| 2026-05-06 09:49 | 50.97139 | -7.92828 | 44665 ft | 1016 kts | 252° |
| 2026-05-06 09:49 | 50.94859 | -8.03451 | 44789 ft | 1018 kts | 251° |
| 2026-05-06 09:49 | 50.92518 | -8.14065 | 44907 ft | 1021 kts | 251° |
| 2026-05-06 09:50 | 50.90121 | -8.24674 | 45021 ft | 1023 kts | 250° |
| 2026-05-06 09:50 | 50.87671 | -8.35263 | 45131 ft | 1026 kts | 250° |
| 2026-05-06 09:50 | 50.85166 | -8.45842 | 45244 ft | 1028 kts | 250° |
| 2026-05-06 09:50 | 50.82605 | -8.56412 | 45354 ft | 1031 kts | 249° |
| 2026-05-06 09:51 | 50.79984 | -8.66976 | 45465 ft | 1033 kts | 249° |
| 2026-05-06 09:51 | 50.77306 | -8.77525 | 45577 ft | 1036 kts | 248° |
| 2026-05-06 09:51 | 50.74561 | -8.88064 | 45689 ft | 1038 kts | 248° |
| 2026-05-06 09:51 | 50.71742 | -8.98558 | 45808 ft | 1041 kts | 247° |
| 2026-05-06 09:52 | 50.68814 | -9.09013 | 45928 ft | 1043 kts | 246° |
| 2026-05-06 09:52 | 50.65797 | -9.19435 | 46052 ft | 1046 kts | 246° |
| 2026-05-06 09:52 | 50.62716 | -9.29829 | 46174 ft | 1049 kts | 245° |
| 2026-05-06 09:52 | 50.59583 | -9.40211 | 46294 ft | 1051 kts | 245° |
| 2026-05-06 09:53 | 50.56365 | -9.50745 | 46415 ft | 1054 kts | 245° |
| 2026-05-06 09:53 | 50.53169 | -9.61109 | 46537 ft | 1056 kts | 244° |
| 2026-05-06 09:53 | 50.49942 | -9.71507 | 46657 ft | 1059 kts | 244° |
| 2026-05-06 09:53 | 50.46705 | -9.81896 | 46786 ft | 1061 kts | 244° |
| 2026-05-06 09:54 | 50.43451 | -9.92315 | 46910 ft | 1064 kts | 244° |
| 2026-05-06 09:54 | 50.40193 | -10.02739 | 47037 ft | 1066 kts | 244° |
| 2026-05-06 09:54 | 50.36933 | -10.13198 | 47160 ft | 1069 kts | 245° |
| 2026-05-06 09:54 | 50.33680 | -10.23686 | 47287 ft | 1072 kts | 245° |
| 2026-05-06 09:55 | 50.30430 | -10.34188 | 47412 ft | 1075 kts | 245° |
| 2026-05-06 09:55 | 50.27176 | -10.44719 | 47538 ft | 1077 kts | 245° |
| 2026-05-06 09:55 | 50.23904 | -10.55279 | 47664 ft | 1080 kts | 245° |
| 2026-05-06 09:55 | 50.20611 | -10.65836 | 47796 ft | 1083 kts | 244° |
| 2026-05-06 09:56 | 50.17288 | -10.76401 | 47926 ft | 1086 kts | 244° |
| 2026-05-06 09:56 | 50.13935 | -10.86983 | 48059 ft | 1089 kts | 244° |
| 2026-05-06 09:56 | 50.10562 | -10.97553 | 48193 ft | 1093 kts | 244° |
| 2026-05-06 09:56 | 50.07156 | -11.08158 | 48325 ft | 1096 kts | 244° |
| 2026-05-06 09:57 | 50.03731 | -11.18765 | 48460 ft | 1099 kts | 244° |
| 2026-05-06 09:57 | 50.00285 | -11.29388 | 48594 ft | 1102 kts | 244° |
| 2026-05-06 09:57 | 49.96820 | -11.40031 | 48726 ft | 1105 kts | 244° |
| 2026-05-06 09:57 | 49.93337 | -11.50691 | 48860 ft | 1108 kts | 244° |
| 2026-05-06 09:58 | 49.89839 | -11.61368 | 48999 ft | 1111 kts | 244° |
| 2026-05-06 09:58 | 49.86327 | -11.72057 | 49139 ft | 1115 kts | 244° |
| 2026-05-06 09:58 | 49.82795 | -11.82778 | 49275 ft | 1118 kts | 243° |
| 2026-05-06 09:58 | 49.79247 | -11.93506 | 49396 ft | 1122 kts | 243° |
| 2026-05-06 09:59 | 49.75679 | -12.04254 | 49512 ft | 1125 kts | 243° |
| 2026-05-06 09:59 | 49.72089 | -12.15015 | 49618 ft | 1128 kts | 243° |
| 2026-05-06 09:59 | 49.64854 | -12.36552 | 49800 ft | 1132 kts | 243° |
| 2026-05-06 10:00 | 49.57537 | -12.58121 | 49954 ft | 1137 kts | 243° |
| 2026-05-06 10:00 | 49.50108 | -12.79828 | 50080 ft | 1140 kts | 243° |
| 2026-05-06 10:01 | 49.42667 | -13.01385 | 50188 ft | 1143 kts | 243° |
| 2026-05-06 10:01 | 49.35165 | -13.22943 | 50289 ft | 1145 kts | 242° |
| 2026-05-06 10:02 | 49.27625 | -13.44438 | 50396 ft | 1145 kts | 242° |
| 2026-05-06 10:02 | 49.20047 | -13.65866 | 50459 ft | 1146 kts | 242° |
| 2026-05-06 10:03 | 49.12379 | -13.87232 | 50515 ft | 1146 kts | 241° |
| 2026-05-06 10:03 | 49.04568 | -14.08435 | 50564 ft | 1146 kts | 241° |
| 2026-05-06 10:04 | 48.96720 | -14.29570 | 50617 ft | 1147 kts | 241° |
| 2026-05-06 10:04 | 48.90216 | -14.47142 | 50660 ft | 1147 kts | 242° |
| 2026-05-06 10:05 | 48.82514 | -14.68350 | 50706 ft | 1146 kts | 242° |
| 2026-05-06 10:05 | 48.75053 | -14.89710 | 50750 ft | 1146 kts | 243° |
| 2026-05-06 10:06 | 48.67734 | -15.11163 | 50794 ft | 1146 kts | 244° |
| 2026-05-06 10:06 | 48.60464 | -15.32616 | 50835 ft | 1146 kts | 244° |
| 2026-05-06 10:07 | 48.53164 | -15.54015 | 50878 ft | 1146 kts | 243° |
| 2026-05-06 10:07 | 48.45678 | -15.75417 | 50924 ft | 1146 kts | 243° |
| 2026-05-06 10:08 | 48.38116 | -15.96549 | 50968 ft | 1146 kts | 242° |
| 2026-05-06 10:08 | 48.30476 | -16.17571 | 51016 ft | 1146 kts | 242° |
| 2026-05-06 10:09 | 48.22787 | -16.38528 | 51061 ft | 1146 kts | 242° |
| 2026-05-06 10:09 | 48.15079 | -16.59441 | 51103 ft | 1145 kts | 242° |
| 2026-05-06 10:10 | 48.07389 | -16.80314 | 51146 ft | 1145 kts | 242° |
| 2026-05-06 10:10 | 47.99688 | -17.01142 | 51194 ft | 1145 kts | 242° |
| 2026-05-06 10:11 | 47.91936 | -17.21888 | 51248 ft | 1145 kts | 242° |
| 2026-05-06 10:11 | 47.84129 | -17.42553 | 51299 ft | 1144 kts | 241° |
| 2026-05-06 10:12 | 47.76274 | -17.63147 | 51352 ft | 1144 kts | 241° |
| 2026-05-06 10:12 | 47.68388 | -17.83666 | 51402 ft | 1144 kts | 241° |
| 2026-05-06 10:13 | 47.60469 | -18.04141 | 51447 ft | 1143 kts | 241° |
| 2026-05-06 10:13 | 47.52526 | -18.24550 | 51489 ft | 1143 kts | 241° |
| 2026-05-06 10:14 | 47.44547 | -18.44907 | 51530 ft | 1143 kts | 240° |
| 2026-05-06 10:14 | 47.36536 | -18.65183 | 51567 ft | 1144 kts | 240° |
| 2026-05-06 10:15 | 47.28479 | -18.85409 | 51603 ft | 1144 kts | 240° |
| 2026-05-06 10:15 | 47.20389 | -19.05558 | 51636 ft | 1144 kts | 240° |
| 2026-05-06 10:16 | 47.12277 | -19.25678 | 51666 ft | 1144 kts | 240° |
| 2026-05-06 10:16 | 47.04167 | -19.45762 | 51699 ft | 1144 kts | 240° |
| 2026-05-06 10:17 | 46.96028 | -19.65785 | 51733 ft | 1144 kts | 240° |
| 2026-05-06 10:17 | 46.87823 | -19.85722 | 51768 ft | 1144 kts | 239° |
| 2026-05-06 10:18 | 46.79471 | -20.05509 | 51805 ft | 1144 kts | 238° |
| 2026-05-06 10:18 | 46.70878 | -20.25244 | 51844 ft | 1144 kts | 238° |
| 2026-05-06 10:19 | 46.62228 | -20.44697 | 51888 ft | 1145 kts | 237° |
| 2026-05-06 10:19 | 46.53507 | -20.64062 | 51930 ft | 1145 kts | 237° |
| 2026-05-06 10:20 | 46.44759 | -20.83359 | 51969 ft | 1145 kts | 237° |
| 2026-05-06 10:20 | 46.36015 | -21.02644 | 52005 ft | 1145 kts | 237° |
| 2026-05-06 10:21 | 46.27302 | -21.21907 | 52041 ft | 1145 kts | 237° |
| 2026-05-06 10:21 | 46.18566 | -21.41138 | 52079 ft | 1145 kts | 237° |
| 2026-05-06 10:22 | 46.09775 | -21.60276 | 52118 ft | 1145 kts | 237° |
| 2026-05-06 10:22 | 46.00928 | -21.79334 | 52159 ft | 1145 kts | 237° |
| 2026-05-06 10:23 | 45.92037 | -21.98327 | 52198 ft | 1145 kts | 237° |
| 2026-05-06 10:23 | 45.83120 | -22.17262 | 52237 ft | 1145 kts | 236° |
| 2026-05-06 10:24 | 45.74185 | -22.36155 | 52283 ft | 1145 kts | 236° |
| 2026-05-06 10:24 | 45.65228 | -22.54997 | 52330 ft | 1145 kts | 236° |
| 2026-05-06 10:25 | 45.56243 | -22.73762 | 52373 ft | 1144 kts | 236° |
| 2026-05-06 10:25 | 45.47227 | -22.92445 | 52411 ft | 1144 kts | 236° |
| 2026-05-06 10:26 | 45.38172 | -23.11055 | 52449 ft | 1143 kts | 236° |
| 2026-05-06 10:26 | 45.29023 | -23.29558 | 52486 ft | 1143 kts | 236° |
| 2026-05-06 10:27 | 45.19874 | -23.48003 | 52524 ft | 1143 kts | 236° |
| 2026-05-06 10:27 | 45.10694 | -23.66558 | 52562 ft | 1143 kts | 236° |
| 2026-05-06 10:28 | 45.01591 | -23.84986 | 52602 ft | 1142 kts | 236° |
| 2026-05-06 10:28 | 44.92483 | -24.03389 | 52640 ft | 1142 kts | 236° |
| 2026-05-06 10:29 | 44.83324 | -24.21695 | 52679 ft | 1142 kts | 235° |
| 2026-05-06 10:29 | 44.74096 | -24.39888 | 52714 ft | 1142 kts | 235° |
| 2026-05-06 10:30 | 44.64811 | -24.58002 | 52750 ft | 1141 kts | 235° |
| 2026-05-06 10:30 | 44.55498 | -24.76051 | 52783 ft | 1141 kts | 235° |
| 2026-05-06 10:31 | 44.46182 | -24.94056 | 52817 ft | 1141 kts | 235° |
| 2026-05-06 10:31 | 44.36859 | -25.12042 | 52850 ft | 1141 kts | 235° |
| 2026-05-06 10:32 | 44.27509 | -25.29950 | 52885 ft | 1141 kts | 234° |
| 2026-05-06 10:32 | 44.18113 | -25.47795 | 52927 ft | 1142 kts | 234° |
| 2026-05-06 10:33 | 44.08682 | -25.65575 | 52970 ft | 1142 kts | 234° |
| 2026-05-06 10:33 | 43.99226 | -25.83300 | 53009 ft | 1142 kts | 234° |
| 2026-05-06 10:34 | 43.89745 | -26.00984 | 53044 ft | 1141 kts | 234° |
| 2026-05-06 10:34 | 43.80249 | -26.18605 | 53079 ft | 1141 kts | 234° |
| 2026-05-06 10:35 | 43.70722 | -26.36172 | 53113 ft | 1141 kts | 234° |
| 2026-05-06 10:35 | 43.61174 | -26.53660 | 53151 ft | 1141 kts | 234° |
| 2026-05-06 10:36 | 43.51589 | -26.71108 | 53188 ft | 1140 kts | 233° |
| 2026-05-06 10:36 | 43.43545 | -26.85671 | 53220 ft | 1140 kts | 233° |
| 2026-05-06 10:37 | 43.33923 | -27.03003 | 53258 ft | 1140 kts | 233° |
| 2026-05-06 10:37 | 43.24278 | -27.20279 | 53298 ft | 1140 kts | 233° |
| 2026-05-06 10:38 | 43.14609 | -27.37496 | 53338 ft | 1139 kts | 233° |
| 2026-05-06 10:38 | 43.04921 | -27.54644 | 53376 ft | 1139 kts | 233° |
| 2026-05-06 10:39 | 42.95203 | -27.71743 | 53416 ft | 1139 kts | 233° |
| 2026-05-06 10:39 | 42.85465 | -27.88780 | 53457 ft | 1139 kts | 233° |
| 2026-05-06 10:40 | 42.75701 | -28.05765 | 53499 ft | 1138 kts | 233° |
| 2026-05-06 10:40 | 42.65917 | -28.22689 | 53543 ft | 1137 kts | 233° |
| 2026-05-06 10:41 | 42.56126 | -28.39529 | 53585 ft | 1137 kts | 232° |
| 2026-05-06 10:41 | 42.46305 | -28.56326 | 53625 ft | 1136 kts | 232° |
| 2026-05-06 10:42 | 42.36398 | -28.73173 | 53657 ft | 1136 kts | 232° |
| 2026-05-06 10:42 | 42.26534 | -28.89852 | 53691 ft | 1136 kts | 232° |
| 2026-05-06 10:43 | 42.16651 | -29.06473 | 53725 ft | 1136 kts | 232° |
| 2026-05-06 10:44 | 42.01772 | -29.31307 | 53785 ft | 1135 kts | 232° |
| 2026-05-06 10:44 | 41.91777 | -29.47718 | 53838 ft | 1134 kts | 232° |
| 2026-05-06 10:45 | 41.81772 | -29.64083 | 53875 ft | 1134 kts | 232° |
| 2026-05-06 10:45 | 41.71803 | -29.80448 | 53913 ft | 1134 kts | 232° |
| 2026-05-06 10:46 | 41.61852 | -29.96823 | 53951 ft | 1134 kts | 232° |
| 2026-05-06 10:46 | 41.51908 | -30.13173 | 53986 ft | 1134 kts | 232° |
| 2026-05-06 10:47 | 41.41921 | -30.29453 | 54024 ft | 1134 kts | 231° |
| 2026-05-06 10:47 | 41.31873 | -30.45631 | 54060 ft | 1134 kts | 231° |
| 2026-05-06 10:48 | 41.21772 | -30.61741 | 54097 ft | 1133 kts | 231° |
| 2026-05-06 10:48 | 41.11655 | -30.77787 | 54130 ft | 1133 kts | 231° |
| 2026-05-06 10:49 | 41.01541 | -30.93808 | 54161 ft | 1133 kts | 231° |
| 2026-05-06 10:49 | 40.91427 | -31.09800 | 54192 ft | 1133 kts | 231° |
| 2026-05-06 10:50 | 40.81272 | -31.25744 | 54226 ft | 1133 kts | 231° |
| 2026-05-06 10:50 | 40.71083 | -31.41621 | 54257 ft | 1133 kts | 230° |
| 2026-05-06 10:51 | 40.60870 | -31.57442 | 54290 ft | 1134 kts | 230° |
| 2026-05-06 10:51 | 40.50641 | -31.73228 | 54323 ft | 1134 kts | 230° |
| 2026-05-06 10:52 | 40.40328 | -31.89087 | 54356 ft | 1134 kts | 230° |
| 2026-05-06 10:52 | 40.30061 | -32.04780 | 54391 ft | 1134 kts | 230° |
| 2026-05-06 10:53 | 40.19764 | -32.20426 | 54424 ft | 1134 kts | 230° |
| 2026-05-06 10:53 | 40.09441 | -32.36029 | 54458 ft | 1134 kts | 230° |
| 2026-05-06 10:54 | 39.99110 | -32.51576 | 54489 ft | 1134 kts | 230° |
| 2026-05-06 10:54 | 39.88755 | -32.67087 | 54520 ft | 1134 kts | 230° |
| 2026-05-06 10:55 | 39.78378 | -32.82550 | 54557 ft | 1134 kts | 230° |
| 2026-05-06 10:55 | 39.67981 | -32.97961 | 54593 ft | 1134 kts | 229° |
| 2026-05-06 10:56 | 39.57561 | -33.13327 | 54630 ft | 1134 kts | 229° |
| 2026-05-06 10:56 | 39.47127 | -33.28642 | 54666 ft | 1134 kts | 229° |
| 2026-05-06 10:57 | 39.36673 | -33.43913 | 54701 ft | 1134 kts | 229° |
| 2026-05-06 10:57 | 39.26198 | -33.59140 | 54735 ft | 1134 kts | 229° |
| 2026-05-06 10:58 | 39.15711 | -33.74308 | 54768 ft | 1134 kts | 229° |
| 2026-05-06 10:58 | 39.05197 | -33.89441 | 54798 ft | 1134 kts | 229° |
| 2026-05-06 10:59 | 38.94667 | -34.04525 | 54827 ft | 1134 kts | 229° |
| 2026-05-06 10:59 | 38.84044 | -34.19669 | 54859 ft | 1134 kts | 229° |
| 2026-05-06 11:00 | 38.73464 | -34.34680 | 54894 ft | 1134 kts | 229° |
| 2026-05-06 11:00 | 38.62869 | -34.49640 | 54925 ft | 1134 kts | 228° |
| 2026-05-06 11:01 | 38.52328 | -34.64452 | 54950 ft | 1134 kts | 228° |
| 2026-05-06 11:01 | 38.41628 | -34.79418 | 54977 ft | 1134 kts | 228° |
| 2026-05-06 11:02 | 38.30980 | -34.94241 | 55005 ft | 1134 kts | 228° |
| 2026-05-06 11:02 | 38.20318 | -35.09014 | 55037 ft | 1134 kts | 228° |
| 2026-05-06 11:03 | 38.09631 | -35.23752 | 55073 ft | 1134 kts | 228° |
| 2026-05-06 11:03 | 37.98922 | -35.38449 | 55111 ft | 1134 kts | 228° |
| 2026-05-06 11:04 | 37.88179 | -35.53125 | 55160 ft | 1135 kts | 227° |
| 2026-05-06 11:04 | 37.77417 | -35.67759 | 55205 ft | 1135 kts | 227° |
| 2026-05-06 11:05 | 37.66647 | -35.82338 | 55247 ft | 1135 kts | 227° |
| 2026-05-06 11:05 | 37.55864 | -35.96871 | 55285 ft | 1135 kts | 227° |
| 2026-05-06 11:06 | 37.45058 | -36.11369 | 55323 ft | 1135 kts | 227° |
| 2026-05-06 11:06 | 37.34243 | -36.25815 | 55357 ft | 1134 kts | 227° |
| 2026-05-06 11:07 | 37.23403 | -36.40227 | 55389 ft | 1134 kts | 227° |
| 2026-05-06 11:07 | 37.12552 | -36.54589 | 55421 ft | 1134 kts | 227° |
| 2026-05-06 11:08 | 37.01681 | -36.68914 | 55455 ft | 1134 kts | 227° |
| 2026-05-06 11:08 | 36.90793 | -36.83199 | 55485 ft | 1134 kts | 227° |
| 2026-05-06 11:09 | 36.79889 | -36.97441 | 55519 ft | 1134 kts | 227° |
| 2026-05-06 11:09 | 36.68975 | -37.11634 | 55552 ft | 1134 kts | 227° |
| 2026-05-06 11:10 | 36.58035 | -37.25797 | 55586 ft | 1134 kts | 227° |
| 2026-05-06 11:10 | 36.47076 | -37.39924 | 55621 ft | 1134 kts | 226° |
| 2026-05-06 11:11 | 36.36113 | -37.53995 | 55659 ft | 1134 kts | 226° |
| 2026-05-06 11:11 | 36.26910 | -37.65760 | 55695 ft | 1134 kts | 226° |
| 2026-05-06 11:12 | 36.15917 | -37.79758 | 55737 ft | 1134 kts | 226° |
| 2026-05-06 11:12 | 36.04896 | -37.93731 | 55778 ft | 1134 kts | 226° |
| 2026-05-06 11:13 | 35.93870 | -38.07652 | 55817 ft | 1134 kts | 226° |
| 2026-05-06 11:13 | 35.82823 | -38.21539 | 55852 ft | 1134 kts | 226° |
| 2026-05-06 11:14 | 35.71765 | -38.35382 | 55883 ft | 1134 kts | 226° |
| 2026-05-06 11:14 | 35.60685 | -38.49195 | 55908 ft | 1134 kts | 226° |
| 2026-05-06 11:15 | 35.49580 | -38.62981 | 55930 ft | 1135 kts | 226° |
| 2026-05-06 11:15 | 35.38464 | -38.76723 | 55946 ft | 1135 kts | 226° |
| 2026-05-06 11:16 | 35.27323 | -38.90438 | 55960 ft | 1136 kts | 226° |
| 2026-05-06 11:16 | 35.16163 | -39.04120 | 55972 ft | 1136 kts | 225° |
| 2026-05-06 11:17 | 35.04983 | -39.17771 | 55984 ft | 1137 kts | 225° |
| 2026-05-06 11:17 | 34.93777 | -39.31397 | 55999 ft | 1137 kts | 225° |
| 2026-05-06 11:18 | 34.82558 | -39.44986 | 56013 ft | 1138 kts | 225° |
| 2026-05-06 11:18 | 34.71260 | -39.58642 | 56030 ft | 1138 kts | 225° |
| 2026-05-06 11:19 | 34.60017 | -39.72186 | 56050 ft | 1138 kts | 225° |
| 2026-05-06 11:19 | 34.48739 | -39.85673 | 56070 ft | 1139 kts | 225° |
| 2026-05-06 11:20 | 34.37403 | -39.99114 | 56094 ft | 1140 kts | 225° |
| 2026-05-06 11:20 | 34.26059 | -40.12522 | 56117 ft | 1140 kts | 225° |
| 2026-05-06 11:21 | 34.14712 | -40.25922 | 56142 ft | 1140 kts | 225° |
| 2026-05-06 11:21 | 34.03354 | -40.39275 | 56169 ft | 1140 kts | 225° |
| 2026-05-06 11:22 | 33.91970 | -40.52578 | 56194 ft | 1140 kts | 225° |
| 2026-05-06 11:22 | 33.80570 | -40.65840 | 56222 ft | 1139 kts | 224° |
| 2026-05-06 11:23 | 33.69175 | -40.79071 | 56254 ft | 1139 kts | 224° |
| 2026-05-06 11:23 | 33.57767 | -40.92268 | 56285 ft | 1139 kts | 224° |
| 2026-05-06 11:24 | 33.46337 | -41.05422 | 56317 ft | 1139 kts | 224° |
| 2026-05-06 11:24 | 33.34894 | -41.18538 | 56346 ft | 1138 kts | 224° |
| 2026-05-06 11:25 | 33.23456 | -41.31617 | 56376 ft | 1138 kts | 224° |
| 2026-05-06 11:25 | 33.12002 | -41.44656 | 56406 ft | 1138 kts | 224° |
| 2026-05-06 11:26 | 33.00524 | -41.57664 | 56437 ft | 1138 kts | 224° |
| 2026-05-06 11:26 | 32.89055 | -41.70624 | 56470 ft | 1137 kts | 224° |
| 2026-05-06 11:27 | 32.77488 | -41.83645 | 56503 ft | 1137 kts | 224° |
| 2026-05-06 11:27 | 32.65996 | -41.96526 | 56537 ft | 1136 kts | 224° |
| 2026-05-06 11:28 | 32.54484 | -42.09385 | 56576 ft | 1136 kts | 224° |
| 2026-05-06 11:28 | 32.42972 | -42.22201 | 56611 ft | 1135 kts | 224° |
| 2026-05-06 11:29 | 32.31454 | -42.34971 | 56646 ft | 1135 kts | 224° |
| 2026-05-06 11:29 | 32.19909 | -42.47724 | 56680 ft | 1135 kts | 223° |
| 2026-05-06 11:30 | 32.08363 | -42.60437 | 56712 ft | 1135 kts | 223° |
| 2026-05-06 11:30 | 31.96800 | -42.73120 | 56744 ft | 1135 kts | 223° |
| 2026-05-06 11:31 | 31.85238 | -42.85753 | 56777 ft | 1134 kts | 223° |
| 2026-05-06 11:31 | 31.73662 | -42.98360 | 56810 ft | 1134 kts | 223° |
| 2026-05-06 11:32 | 31.62075 | -43.10933 | 56843 ft | 1134 kts | 223° |
| 2026-05-06 11:32 | 31.50474 | -43.23476 | 56877 ft | 1134 kts | 223° |
| 2026-05-06 11:33 | 31.38871 | -43.35977 | 56911 ft | 1134 kts | 223° |
| 2026-05-06 11:33 | 31.27245 | -43.48460 | 56946 ft | 1134 kts | 223° |
| 2026-05-06 11:34 | 31.15604 | -43.60914 | 56978 ft | 1134 kts | 223° |
| 2026-05-06 11:34 | 31.03954 | -43.73335 | 57011 ft | 1134 kts | 223° |
| 2026-05-06 11:35 | 30.92293 | -43.85726 | 57048 ft | 1134 kts | 223° |
| 2026-05-06 11:35 | 30.80631 | -43.98073 | 57082 ft | 1134 kts | 223° |
| 2026-05-06 11:36 | 30.68874 | -44.10478 | 57120 ft | 1134 kts | 223° |
| 2026-05-06 11:36 | 30.57185 | -44.22771 | 57157 ft | 1134 kts | 222° |
| 2026-05-06 11:37 | 30.45488 | -44.35029 | 57194 ft | 1134 kts | 222° |
| 2026-05-06 11:37 | 30.33773 | -44.47265 | 57231 ft | 1134 kts | 222° |
| 2026-05-06 11:38 | 30.22044 | -44.59475 | 57266 ft | 1134 kts | 222° |
| 2026-05-06 11:38 | 30.10306 | -44.71653 | 57300 ft | 1134 kts | 222° |
| 2026-05-06 11:39 | 29.98563 | -44.83796 | 57332 ft | 1133 kts | 222° |
| 2026-05-06 11:39 | 29.86816 | -44.95903 | 57365 ft | 1133 kts | 222° |
| 2026-05-06 11:40 | 29.75054 | -45.07985 | 57400 ft | 1133 kts | 222° |
| 2026-05-06 11:40 | 29.63280 | -45.20040 | 57434 ft | 1133 kts | 222° |
| 2026-05-06 11:41 | 29.51489 | -45.32073 | 57467 ft | 1133 kts | 221° |
| 2026-05-06 11:41 | 29.39682 | -45.44083 | 57498 ft | 1133 kts | 221° |
| 2026-05-06 11:42 | 29.27874 | -45.56056 | 57527 ft | 1133 kts | 221° |
| 2026-05-06 11:42 | 29.16059 | -45.67997 | 57555 ft | 1133 kts | 221° |
| 2026-05-06 11:43 | 29.04223 | -45.79922 | 57584 ft | 1134 kts | 221° |
| 2026-05-06 11:43 | 28.92374 | -45.91821 | 57612 ft | 1134 kts | 221° |
| 2026-05-06 11:44 | 28.76516 | -46.07688 | 57647 ft | 1134 kts | 221° |
| 2026-05-06 11:44 | 28.64640 | -46.19527 | 57671 ft | 1134 kts | 221° |
| 2026-05-06 11:45 | 28.52755 | -46.31338 | 57693 ft | 1134 kts | 221° |
| 2026-05-06 11:45 | 28.40857 | -46.43125 | 57715 ft | 1134 kts | 221° |
| 2026-05-06 11:46 | 28.28947 | -46.54888 | 57738 ft | 1134 kts | 221° |
| 2026-05-06 11:46 | 28.17026 | -46.66625 | 57762 ft | 1135 kts | 221° |
| 2026-05-06 11:47 | 28.05097 | -46.78334 | 57783 ft | 1135 kts | 221° |
| 2026-05-06 11:47 | 27.93157 | -46.90018 | 57803 ft | 1135 kts | 221° |
| 2026-05-06 11:48 | 27.81201 | -47.01682 | 57822 ft | 1136 kts | 221° |
| 2026-05-06 11:48 | 27.69231 | -47.13325 | 57838 ft | 1136 kts | 221° |
| 2026-05-06 11:49 | 27.57249 | -47.24945 | 57853 ft | 1136 kts | 220° |
| 2026-05-06 11:49 | 27.45163 | -47.36607 | 57868 ft | 1136 kts | 220° |
| 2026-05-06 11:50 | 27.33134 | -47.48151 | 57885 ft | 1137 kts | 220° |
| 2026-05-06 11:50 | 27.21113 | -47.59693 | 57902 ft | 1137 kts | 220° |
| 2026-05-06 11:51 | 27.09094 | -47.71242 | 57924 ft | 1136 kts | 220° |
| 2026-05-06 11:51 | 26.97086 | -47.82774 | 57941 ft | 1136 kts | 220° |
| 2026-05-06 11:52 | 26.85065 | -47.94264 | 57960 ft | 1136 kts | 220° |
| 2026-05-06 11:52 | 26.73010 | -48.05704 | 57980 ft | 1136 kts | 220° |
| 2026-05-06 11:53 | 26.60940 | -48.17115 | 58002 ft | 1136 kts | 220° |
| 2026-05-06 11:53 | 26.48877 | -48.28517 | 58028 ft | 1136 kts | 220° |
| 2026-05-06 11:54 | 26.36799 | -48.39924 | 58053 ft | 1136 kts | 220° |
| 2026-05-06 11:54 | 26.24710 | -48.51291 | 58077 ft | 1136 kts | 220° |
| 2026-05-06 11:55 | 26.12608 | -48.62615 | 58101 ft | 1136 kts | 220° |
| 2026-05-06 11:55 | 26.00500 | -48.73924 | 58131 ft | 1136 kts | 220° |
| 2026-05-06 11:56 | 25.88398 | -48.85216 | 58153 ft | 1136 kts | 220° |
| 2026-05-06 11:56 | 25.76283 | -48.96479 | 58175 ft | 1136 kts | 220° |
| 2026-05-06 11:57 | 25.64161 | -49.07701 | 58198 ft | 1136 kts | 220° |
| 2026-05-06 11:57 | 25.52026 | -49.18920 | 58220 ft | 1136 kts | 220° |
| 2026-05-06 11:58 | 25.39892 | -49.30112 | 58240 ft | 1136 kts | 219° |
| 2026-05-06 11:58 | 25.27658 | -49.41352 | 58262 ft | 1136 kts | 219° |
| 2026-05-06 11:59 | 25.15492 | -49.52498 | 58285 ft | 1136 kts | 219° |
| 2026-05-06 11:59 | 25.03300 | -49.63580 | 58304 ft | 1136 kts | 219° |
| 2026-05-06 12:00 | 24.91100 | -49.74646 | 58326 ft | 1136 kts | 219° |
| 2026-05-06 12:00 | 24.78904 | -49.85746 | 58344 ft | 1136 kts | 219° |
| 2026-05-06 12:01 | 24.66731 | -49.96850 | 58361 ft | 1136 kts | 219° |
| 2026-05-06 12:01 | 24.54567 | -50.07940 | 58377 ft | 1136 kts | 219° |
| 2026-05-06 12:02 | 24.42366 | -50.19000 | 58391 ft | 1137 kts | 219° |
| 2026-05-06 12:02 | 24.30128 | -50.30009 | 58409 ft | 1137 kts | 219° |
| 2026-05-06 12:03 | 24.17881 | -50.40985 | 58429 ft | 1137 kts | 219° |
| 2026-05-06 12:03 | 24.05648 | -50.51955 | 58448 ft | 1137 kts | 219° |
| 2026-05-06 12:04 | 23.93416 | -50.62925 | 58469 ft | 1137 kts | 219° |
| 2026-05-06 12:04 | 23.81166 | -50.73874 | 58489 ft | 1137 kts | 219° |
| 2026-05-06 12:05 | 23.68895 | -50.84781 | 58513 ft | 1137 kts | 219° |
| 2026-05-06 12:05 | 23.56612 | -50.95675 | 58537 ft | 1137 kts | 219° |
| 2026-05-06 12:06 | 23.44343 | -51.06551 | 58564 ft | 1137 kts | 219° |
| 2026-05-06 12:06 | 23.32068 | -51.17411 | 58592 ft | 1136 kts | 219° |
| 2026-05-06 12:07 | 23.19784 | -51.28230 | 58619 ft | 1136 kts | 219° |
| 2026-05-06 12:07 | 23.07477 | -51.39044 | 58645 ft | 1137 kts | 219° |
| 2026-05-06 12:08 | 22.95180 | -51.49838 | 58677 ft | 1137 kts | 218° |
| 2026-05-06 12:08 | 22.82871 | -51.60613 | 58706 ft | 1137 kts | 218° |
| 2026-05-06 12:09 | 22.70545 | -51.71365 | 58736 ft | 1137 kts | 218° |
| 2026-05-06 12:09 | 22.58225 | -51.82095 | 58764 ft | 1137 kts | 218° |
| 2026-05-06 12:10 | 22.45897 | -51.92812 | 58787 ft | 1137 kts | 218° |
| 2026-05-06 12:10 | 22.33564 | -52.03495 | 58811 ft | 1137 kts | 218° |
| 2026-05-06 12:11 | 22.21215 | -52.14176 | 58835 ft | 1137 kts | 218° |
| 2026-05-06 12:11 | 22.08866 | -52.24834 | 58860 ft | 1137 kts | 218° |
| 2026-05-06 12:12 | 21.96497 | -52.35475 | 58885 ft | 1137 kts | 218° |
| 2026-05-06 12:12 | 21.84129 | -52.46100 | 58913 ft | 1137 kts | 218° |
| 2026-05-06 12:13 | 21.71763 | -52.56696 | 58940 ft | 1137 kts | 218° |
| 2026-05-06 12:13 | 21.59294 | -52.67352 | 58969 ft | 1137 kts | 218° |
| 2026-05-06 12:14 | 21.46898 | -52.77929 | 58995 ft | 1138 kts | 218° |
| 2026-05-06 12:14 | 21.34474 | -52.88500 | 59024 ft | 1139 kts | 218° |
| 2026-05-06 12:15 | 21.22058 | -52.99044 | 59053 ft | 1139 kts | 218° |
| 2026-05-06 12:15 | 21.09627 | -53.09577 | 59073 ft | 1139 kts | 218° |
| 2026-05-06 12:16 | 20.99288 | -53.18317 | 59089 ft | 1139 kts | 218° |
| 2026-05-06 12:16 | 20.86839 | -53.28825 | 59110 ft | 1139 kts | 218° |
| 2026-05-06 12:17 | 20.74390 | -53.39306 | 59132 ft | 1139 kts | 218° |
| 2026-05-06 12:17 | 20.61924 | -53.49781 | 59153 ft | 1140 kts | 218° |
| 2026-05-06 12:18 | 20.49457 | -53.60235 | 59180 ft | 1141 kts | 218° |
| 2026-05-06 12:18 | 20.36955 | -53.70693 | 59207 ft | 1141 kts | 218° |
| 2026-05-06 12:19 | 20.24485 | -53.81106 | 59272 ft | 1136 kts | 218° |
| 2026-05-06 12:19 | 20.12041 | -53.91471 | 59284 ft | 1136 kts | 218° |
| 2026-05-06 12:20 | 19.99590 | -54.01825 | 59320 ft | 1136 kts | 218° |
| 2026-05-06 12:20 | 19.87050 | -54.12230 | 59363 ft | 1136 kts | 217° |
| 2026-05-06 12:21 | 19.74580 | -54.22554 | 59406 ft | 1136 kts | 217° |
| 2026-05-06 12:21 | 19.62110 | -54.32860 | 59447 ft | 1137 kts | 217° |
| 2026-05-06 12:22 | 19.49616 | -54.43160 | 59488 ft | 1137 kts | 217° |
| 2026-05-06 12:22 | 19.37129 | -54.53439 | 59523 ft | 1137 kts | 217° |
| 2026-05-06 12:23 | 19.24622 | -54.63710 | 59558 ft | 1137 kts | 217° |
| 2026-05-06 12:23 | 19.12100 | -54.73975 | 59589 ft | 1138 kts | 217° |
| 2026-05-06 12:24 | 18.99588 | -54.84211 | 59615 ft | 1138 kts | 217° |
| 2026-05-06 12:24 | 18.87050 | -54.94448 | 59636 ft | 1138 kts | 217° |
| 2026-05-06 12:25 | 18.74506 | -55.04672 | 59660 ft | 1138 kts | 217° |
| 2026-05-06 12:25 | 18.61964 | -55.14871 | 59679 ft | 1138 kts | 217° |
| 2026-05-06 12:26 | 18.49407 | -55.25043 | 59694 ft | 1139 kts | 217° |
| 2026-05-06 12:26 | 18.36803 | -55.35161 | 59707 ft | 1139 kts | 217° |
| 2026-05-06 12:27 | 18.24198 | -55.45291 | 59720 ft | 1140 kts | 217° |
| 2026-05-06 12:27 | 18.11644 | -55.55448 | 59731 ft | 1140 kts | 217° |
| 2026-05-06 12:28 | 17.99081 | -55.65656 | 59740 ft | 1141 kts | 217° |
| 2026-05-06 12:28 | 17.86527 | -55.75866 | 59753 ft | 1141 kts | 217° |
| 2026-05-06 12:29 | 17.73951 | -55.86039 | 59769 ft | 1141 kts | 217° |
| 2026-05-06 12:29 | 17.61343 | -55.96156 | 59791 ft | 1141 kts | 217° |
| 2026-05-06 12:30 | 17.48706 | -56.06257 | 59814 ft | 1141 kts | 217° |
| 2026-05-06 12:30 | 17.36094 | -56.16352 | 59834 ft | 1141 kts | 217° |
| 2026-05-06 12:31 | 17.23484 | -56.26459 | 59848 ft | 1141 kts | 217° |
| 2026-05-06 12:31 | 17.10877 | -56.36553 | 59861 ft | 1141 kts | 217° |
| 2026-05-06 12:32 | 16.98258 | -56.46608 | 59874 ft | 1141 kts | 217° |
| 2026-05-06 12:32 | 16.85635 | -56.56632 | 59888 ft | 1140 kts | 217° |
| 2026-05-06 12:33 | 16.73004 | -56.66663 | 59902 ft | 1140 kts | 217° |
| 2026-05-06 12:33 | 16.60372 | -56.76693 | 59917 ft | 1140 kts | 217° |
| 2026-05-06 12:34 | 16.47747 | -56.86697 | 59930 ft | 1140 kts | 217° |
| 2026-05-06 12:34 | 16.35092 | -56.96687 | 59941 ft | 1141 kts | 217° |
| 2026-05-06 12:35 | 16.22351 | -57.06735 | 59954 ft | 1141 kts | 217° |